Time;durP1;ratioP1;P1;durP2;ratioP2;P2;SDS_P1;SDS_P2;PMS_P1;PMS_P2;Temp;Humidity;BMP_temperature;BMP_pressure;BME280_temperature;BME280_humidity;BME280_pressure;Samples;Min_cycle;Max_cycle;Signal;HPM_P1;HPM_P2
2022/12/28 00:02:14;;;;;;;2.88;2.15;;;;;12.30;101304.00;;;;5048364;28;20195;-76
2022/12/28 00:04:41;;;;;;;5.53;2.40;;;;;12.30;101301.00;;;;5060197;28;20542;-76
2022/12/28 00:07:08;;;;;;;2.75;1.85;;;;;12.30;101294.00;;;;5059401;28;20195;-77
2022/12/28 00:09:36;;;;;;;5.00;2.50;;;;;12.30;101293.00;;;;5057326;28;20195;-76
2022/12/28 00:12:03;;;;;;;4.80;2.20;;;;;12.30;101285.00;;;;5061843;28;20203;-76
2022/12/28 00:14:30;;;;;;;4.65;2.28;;;;;12.30;101266.00;;;;5048101;28;20230;-76
2022/12/28 00:16:57;;;;;;;5.90;2.40;;;;;12.20;101263.00;;;;5058476;28;20199;-76
2022/12/28 00:19:26;;;;;;;3.05;1.73;;;;;12.30;101256.00;;;;5064217;28;20196;-76
2022/12/28 00:21:54;;;;;;;2.67;2.10;;;;;12.30;101252.00;;;;5062858;28;20208;-76
2022/12/28 00:24:23;;;;;;;4.57;1.90;;;;;12.30;101239.00;;;;5060521;28;20665;-76
2022/12/28 00:26:51;;;;;;;4.18;2.13;;;;;12.30;101246.00;;;;5053924;28;20584;-76
2022/12/28 00:29:20;;;;;;;7.38;2.13;;;;;12.30;101236.00;;;;5053176;28;20278;-76
2022/12/28 00:31:47;;;;;;;3.10;2.13;;;;;12.30;101235.00;;;;5057453;28;20204;-76
2022/12/28 00:34:15;;;;;;;3.20;1.55;;;;;12.30;101229.00;;;;5051587;28;20226;-76
2022/12/28 00:36:44;;;;;;;6.38;2.42;;;;;12.30;101225.00;;;;5060085;28;20191;-76
2022/12/28 00:39:11;;;;;;;3.20;2.13;;;;;12.30;101227.00;;;;5060352;28;20203;-76
2022/12/28 00:41:38;;;;;;;3.35;1.67;;;;;12.30;101222.00;;;;5055401;28;20242;-76
2022/12/28 00:44:05;;;;;;;3.15;1.75;;;;;12.30;101209.00;;;;5050381;28;20226;-76
2022/12/28 00:46:33;;;;;;;2.60;1.63;;;;;12.30;101211.00;;;;5053998;28;20192;-76
2022/12/28 00:49:00;;;;;;;2.83;1.65;;;;;12.40;101205.00;;;;5061880;28;20203;-77
2022/12/28 00:51:27;;;;;;;4.53;2.17;;;;;12.30;101207.00;;;;5058099;28;20967;-76
2022/12/28 00:53:56;;;;;;;2.92;1.75;;;;;12.30;101201.00;;;;5059886;28;20203;-76
2022/12/28 00:56:23;;;;;;;3.00;1.55;;;;;12.40;101201.00;;;;5047059;28;20597;-76
2022/12/28 00:58:55;;;;;;;2.17;1.55;;;;;12.40;101203.00;;;;5057315;28;20673;-76
2022/12/28 01:01:23;;;;;;;3.08;2.05;;;;;12.40;101196.00;;;;5068252;28;20206;-76
2022/12/28 01:03:51;;;;;;;2.47;1.73;;;;;12.40;101195.00;;;;5050302;28;20207;-76
2022/12/28 01:06:19;;;;;;;3.90;2.08;;;;;12.40;101190.00;;;;5063786;28;20214;-76
2022/12/28 01:08:47;;;;;;;4.97;1.73;;;;;12.40;101179.00;;;;5051352;28;20653;-75
2022/12/28 01:11:18;;;;;;;4.30;1.92;;;;;12.40;101165.00;;;;5053212;28;20204;-76
2022/12/28 01:13:46;;;;;;;3.50;1.83;;;;;12.40;101158.00;;;;5054118;28;20601;-76
2022/12/28 01:16:16;;;;;;;5.00;2.50;;;;;12.40;101156.00;;;;5062787;28;20223;-76
2022/12/28 01:18:44;;;;;;;4.30;2.20;;;;;12.50;101151.00;;;;5054382;28;20673;-76
2022/12/28 01:21:13;;;;;;;4.65;2.08;;;;;12.50;101148.00;;;;5061897;28;20206;-76
2022/12/28 01:23:40;;;;;;;3.67;2.60;;;;;12.50;101147.00;;;;5054491;28;20216;-76
2022/12/28 01:26:08;;;;;;;3.92;2.28;;;;;12.50;101132.00;;;;5056175;28;20207;-77
2022/12/28 01:28:37;;;;;;;4.28;2.60;;;;;12.50;101139.00;;;;5054239;28;21740;-76
2022/12/28 01:31:06;;;;;;;5.85;2.33;;;;;12.50;101137.00;;;;5049546;28;20203;-76
2022/12/28 01:33:34;;;;;;;5.85;2.47;;;;;12.50;101124.00;;;;5054891;28;20197;-76
2022/12/28 01:36:07;;;;;;;3.35;2.03;;;;;12.50;101129.00;;;;5051896;28;20238;-76
2022/12/28 01:38:34;;;;;;;4.30;1.90;;;;;12.60;101129.00;;;;5057374;28;20327;-76
2022/12/28 01:41:01;;;;;;;4.20;2.05;;;;;12.60;101118.00;;;;5055769;28;20696;-76
2022/12/28 01:43:40;;;;;;;3.25;2.22;;;;;12.60;101123.00;;;;5053911;28;20270;-76
2022/12/28 01:46:11;;;;;;;4.00;2.45;;;;;12.60;101113.00;;;;5063511;28;20198;-76
2022/12/28 01:48:45;;;;;;;4.35;2.30;;;;;12.60;101116.00;;;;5049643;28;20279;-76
2022/12/28 01:51:12;;;;;;;3.35;2.10;;;;;12.70;101110.00;;;;5049616;28;20199;-76
2022/12/28 01:53:40;;;;;;;3.28;1.98;;;;;12.70;101093.00;;;;5051566;28;20203;-76
2022/12/28 01:56:07;;;;;;;3.65;1.98;;;;;12.70;101104.00;;;;5053594;28;20230;-76
2022/12/28 01:58:37;;;;;;;2.42;1.95;;;;;12.70;101089.00;;;;5056189;28;20203;-76
2022/12/28 02:01:04;;;;;;;2.60;2.20;;;;;12.70;101084.00;;;;5055548;28;20198;-76
2022/12/28 02:03:34;;;;;;;2.83;1.80;;;;;12.80;101077.00;;;;5059173;28;20199;-76
2022/12/28 02:06:06;;;;;;;3.85;2.25;;;;;12.80;101078.00;;;;5066036;28;20209;-76
2022/12/28 02:08:40;;;;;;;2.55;1.98;;;;;12.80;101079.00;;;;5061871;28;20392;-76
2022/12/28 02:11:10;;;;;;;6.47;2.60;;;;;12.80;101064.00;;;;5053210;28;20203;-76
2022/12/28 02:13:39;;;;;;;8.07;2.55;;;;;12.80;101051.00;;;;5061386;28;20204;-76
2022/12/28 02:16:07;;;;;;;4.65;2.22;;;;;12.90;101057.00;;;;5056281;28;20234;-77
2022/12/28 02:18:35;;;;;;;4.15;2.30;;;;;12.90;101051.00;;;;5051421;28;20283;-76
2022/12/28 02:21:20;;;;;;;2.90;2.05;;;;;12.80;101047.00;;;;5057819;28;20191;-76
2022/12/28 02:24:24;;;;;;;3.38;2.42;;;;;12.80;101039.00;;;;5057752;28;20219;-76
2022/12/28 02:26:58;;;;;;;2.85;1.85;;;;;12.90;101038.00;;;;5049193;28;20196;-76
2022/12/28 02:29:52;;;;;;;3.35;2.22;;;;;12.80;101036.00;;;;5051101;28;20202;-77
2022/12/28 02:32:32;;;;;;;3.50;2.03;;;;;12.80;101034.00;;;;5052983;28;20195;-76
2022/12/28 02:35:06;;;;;;;2.88;2.30;;;;;12.80;101024.00;;;;5048405;28;20223;-76
2022/12/28 02:37:40;;;;;;;2.65;2.28;;;;;12.90;101006.00;;;;5048974;28;20257;-77
2022/12/28 02:40:11;;;;;;;4.45;2.70;;;;;12.90;101012.00;;;;5058512;28;20198;-76
2022/12/28 02:42:40;;;;;;;3.08;2.22;;;;;12.90;101002.00;;;;5054638;28;20217;-76
2022/12/28 02:51:11;;;;;;;5.07;2.35;;;;;12.80;100995.00;;;;5053710;28;20206;-77
2022/12/28 02:54:09;;;;;;;3.20;2.40;;;;;12.80;100994.00;;;;5054370;28;20203;-76
2022/12/28 02:56:43;;;;;;;4.00;2.38;;;;;12.90;100994.00;;;;5046822;28;20221;-76
2022/12/28 02:59:40;;;;;;;3.10;2.15;;;;;12.90;100992.00;;;;5054306;28;20303;-76
2022/12/28 03:02:29;;;;;;;4.20;2.30;;;;;12.80;101002.00;;;;5067015;28;20209;-76
2022/12/28 03:05:10;;;;;;;3.88;2.28;;;;;12.90;100985.00;;;;5045695;28;20203;-76
2022/12/28 03:10:36;;;;;;;2.40;2.20;;;;;12.90;100987.00;;;;5061908;28;20211;-76
2022/12/28 03:13:41;;;;;;;2.08;1.88;;;;;13.00;100977.00;;;;5047348;28;20296;-76
2022/12/28 03:15:58;;;;;;;3.45;2.08;;;;;13.00;100970.00;;;;5054640;28;20229;-76
2022/12/28 03:32:25;;;;;;;3.95;2.20;;;;;13.10;100949.00;;;;5057066;28;20194;-76
2022/12/28 03:34:53;;;;;;;3.33;2.45;;;;;13.10;100945.00;;;;5055464;28;20697;-76
2022/12/28 03:37:28;;;;;;;3.97;2.47;;;;;13.10;100953.00;;;;5059084;28;20196;-76
2022/12/28 03:40:00;;;;;;;2.97;2.63;;;;;13.10;100955.00;;;;5061573;28;20964;-76
2022/12/28 03:45:20;;;;;;;2.97;2.45;;;;;13.20;100944.00;;;;5056492;28;20207;-76
2022/12/28 03:47:50;;;;;;;4.15;2.53;;;;;13.20;100945.00;;;;5057003;28;20674;-76
2022/12/28 03:50:20;;;;;;;3.70;2.75;;;;;13.20;100946.00;;;;5058412;28;20207;-76
2022/12/28 03:52:48;;;;;;;5.32;2.97;;;;;13.20;100938.00;;;;5053763;28;20195;-76
2022/12/28 03:55:16;;;;;;;2.83;2.35;;;;;13.30;100929.00;;;;5059284;28;20219;-76
2022/12/28 03:57:43;;;;;;;2.65;2.15;;;;;13.30;100933.00;;;;5057915;28;20207;-76
2022/12/28 04:00:11;;;;;;;3.42;2.80;;;;;13.30;100944.00;;;;5052247;28;20203;-76
2022/12/28 04:02:39;;;;;;;2.92;2.40;;;;;13.30;100936.00;;;;5059282;28;20868;-76
2022/12/28 04:05:07;;;;;;;3.58;2.70;;;;;13.30;100938.00;;;;5067946;28;20226;-76
2022/12/28 04:07:35;;;;;;;4.95;3.10;;;;;13.30;100931.00;;;;5069286;28;20199;-76
2022/12/28 04:10:03;;;;;;;4.22;2.53;;;;;13.40;100931.00;;;;5060414;28;20215;-76
2022/12/28 04:12:30;;;;;;;3.00;2.60;;;;;13.40;100932.00;;;;5053253;28;20208;-76
2022/12/28 04:14:57;;;;;;;4.38;2.90;;;;;13.40;100923.00;;;;5051725;28;20200;-76
2022/12/28 04:17:25;;;;;;;3.10;2.70;;;;;13.40;100927.00;;;;5052489;28;20196;-77
2022/12/28 04:19:52;;;;;;;4.18;2.78;;;;;13.50;100922.00;;;;5059421;28;20191;-76
2022/12/28 04:22:19;;;;;;;4.15;2.95;;;;;13.50;100919.00;;;;5056243;28;20216;-76
2022/12/28 04:24:48;;;;;;;3.25;2.78;;;;;13.50;100907.00;;;;5059699;28;20218;-76
2022/12/28 04:27:15;;;;;;;3.00;2.60;;;;;13.50;100919.00;;;;5050651;28;20199;-77
2022/12/28 04:29:42;;;;;;;3.15;2.83;;;;;13.50;100910.00;;;;5057310;28;20200;-77
2022/12/28 04:32:10;;;;;;;3.22;2.90;;;;;13.50;100911.00;;;;5064395;28;20402;-76
2022/12/28 04:34:37;;;;;;;4.03;3.30;;;;;13.60;100914.00;;;;5066059;28;20191;-77
2022/12/28 04:37:04;;;;;;;3.83;2.97;;;;;13.60;100906.00;;;;5059666;28;20211;-76
2022/12/28 04:39:32;;;;;;;6.05;3.08;;;;;13.60;100914.00;;;;5062508;28;20428;-77
2022/12/28 04:42:01;;;;;;;5.55;3.78;;;;;13.60;100905.00;;;;5056222;28;20198;-76
2022/12/28 04:44:28;;;;;;;5.82;3.58;;;;;13.60;100906.00;;;;5056950;28;20223;-76
2022/12/28 04:46:56;;;;;;;4.38;3.10;;;;;13.60;100905.00;;;;5060995;28;20191;-77
2022/12/28 04:49:23;;;;;;;3.40;3.08;;;;;13.70;100882.00;;;;5048903;28;20222;-76
2022/12/28 04:51:51;;;;;;;3.30;2.80;;;;;13.70;100894.00;;;;5063134;28;20207;-76
2022/12/28 04:54:18;;;;;;;4.18;3.15;;;;;13.70;100898.00;;;;5069491;28;20194;-77
2022/12/28 04:56:45;;;;;;;4.18;3.30;;;;;13.70;100883.00;;;;5059810;28;20223;-76
2022/12/28 04:59:14;;;;;;;3.35;3.05;;;;;13.70;100878.00;;;;5063810;28;20214;-77
2022/12/28 05:01:41;;;;;;;3.53;3.00;;;;;13.80;100885.00;;;;5050234;28;20199;-77
2022/12/28 05:04:09;;;;;;;4.22;3.83;;;;;13.80;100875.00;;;;5051550;28;20204;-77
2022/12/28 05:06:36;;;;;;;5.50;3.15;;;;;13.80;100868.00;;;;5064381;28;20204;-77
2022/12/28 05:09:03;;;;;;;3.42;2.90;;;;;13.80;100865.00;;;;5060505;28;20199;-77
2022/12/28 05:11:31;;;;;;;4.00;3.15;;;;;13.80;100863.00;;;;5063277;28;20211;-77
2022/12/28 05:13:59;;;;;;;3.83;3.40;;;;;13.80;100865.00;;;;5052046;28;20233;-77
2022/12/28 05:16:29;;;;;;;6.38;3.28;;;;;13.80;100862.00;;;;5056835;28;20227;-77
2022/12/28 05:18:57;;;;;;;3.85;2.95;;;;;13.80;100868.00;;;;5058165;28;20199;-76
2022/12/28 05:21:26;;;;;;;3.40;2.90;;;;;13.90;100864.00;;;;5053377;28;20200;-76
2022/12/28 05:23:53;;;;;;;4.20;3.10;;;;;13.90;100868.00;;;;5065329;28;20219;-76
2022/12/28 05:26:23;;;;;;;3.25;2.95;;;;;13.90;100868.00;;;;5069431;28;20202;-76
2022/12/28 05:28:50;;;;;;;3.03;2.72;;;;;13.90;100865.00;;;;5052438;28;20206;-76
2022/12/28 05:31:19;;;;;;;3.08;2.40;;;;;13.90;100863.00;;;;5064043;28;20212;-77
2022/12/28 05:33:49;;;;;;;3.88;2.60;;;;;13.90;100854.00;;;;5052679;28;20203;-76
2022/12/28 05:36:18;;;;;;;2.85;2.55;;;;;14.00;100866.00;;;;5059425;28;20210;-76
2022/12/28 05:38:46;;;;;;;4.22;2.90;;;;;14.00;100855.00;;;;5050329;28;20207;-77
2022/12/28 05:41:15;;;;;;;5.05;2.58;;;;;14.00;100863.00;;;;5059222;28;20248;-77
2022/12/28 05:43:44;;;;;;;3.10;2.80;;;;;14.00;100863.00;;;;5054688;28;20231;-76
2022/12/28 05:46:13;;;;;;;3.35;2.53;;;;;14.00;100862.00;;;;5049016;28;20192;-76
2022/12/28 05:48:42;;;;;;;3.40;2.28;;;;;14.10;100852.00;;;;5063242;28;20203;-76
2022/12/28 05:51:13;;;;;;;3.17;2.45;;;;;14.00;100856.00;;;;5058620;28;20218;-77
2022/12/28 05:53:42;;;;;;;8.23;2.58;;;;;14.10;100855.00;;;;5056126;28;20200;-76
2022/12/28 05:56:10;;;;;;;2.92;2.15;;;;;14.10;100853.00;;;;5057526;28;20868;-76
2022/12/28 05:58:38;;;;;;;2.35;2.15;;;;;14.10;100850.00;;;;5067234;28;20199;-76
2022/12/28 06:01:08;;;;;;;5.47;1.92;;;;;14.10;100853.00;;;;5056832;28;20202;-77
2022/12/28 06:03:36;;;;;;;2.08;1.77;;;;;14.20;100852.00;;;;5047865;28;20187;-77
2022/12/28 06:06:06;;;;;;;2.13;1.92;;;;;14.20;100852.00;;;;5057338;28;20231;-76
2022/12/28 06:08:35;;;;;;;2.22;1.80;;;;;14.20;100847.00;;;;5058925;28;20198;-77
2022/12/28 06:11:03;;;;;;;3.22;2.35;;;;;14.20;100844.00;;;;5054748;28;20203;-76
2022/12/28 06:13:31;;;;;;;3.20;2.10;;;;;14.20;100838.00;;;;5053283;28;20206;-76
2022/12/28 06:15:59;;;;;;;2.00;1.80;;;;;14.20;100832.00;;;;5059868;28;20246;-77
2022/12/28 06:18:29;;;;;;;1.63;1.52;;;;;14.20;100839.00;;;;5061595;28;20190;-76
2022/12/28 06:21:02;;;;;;;2.80;2.05;;;;;14.20;100844.00;;;;5055441;28;20670;-77
2022/12/28 06:23:29;;;;;;;2.03;1.83;;;;;14.30;100832.00;;;;5056082;28;20218;-77
2022/12/28 06:26:00;;;;;;;2.30;2.10;;;;;14.30;100837.00;;;;5051088;28;20207;-77
2022/12/28 06:28:28;;;;;;;2.17;1.90;;;;;14.30;100833.00;;;;5047041;28;20581;-77
2022/12/28 06:31:03;;;;;;;2.53;2.10;;;;;14.30;100838.00;;;;5060601;28;20199;-77
2022/12/28 06:33:30;;;;;;;2.92;1.80;;;;;14.40;100835.00;;;;5066148;28;20276;-77
2022/12/28 06:35:58;;;;;;;2.70;1.88;;;;;14.40;100835.00;;;;5051472;28;20226;-77
2022/12/28 06:38:28;;;;;;;2.58;2.10;;;;;14.40;100837.00;;;;5056679;28;20206;-76
2022/12/28 06:40:55;;;;;;;2.22;1.70;;;;;14.40;100835.00;;;;5054831;28;20191;-77
2022/12/28 06:43:24;;;;;;;2.40;2.00;;;;;14.50;100836.00;;;;5058523;28;20231;-76
2022/12/28 06:45:57;;;;;;;2.53;2.03;;;;;14.40;100843.00;;;;5058122;28;20202;-76
2022/12/28 06:48:25;;;;;;;2.38;1.70;;;;;14.50;100847.00;;;;5057148;28;20203;-77
2022/12/28 06:50:56;;;;;;;3.35;2.03;;;;;14.50;100829.00;;;;5054845;28;20198;-76
2022/12/28 06:53:24;;;;;;;2.00;1.45;;;;;14.50;100833.00;;;;5061916;28;20233;-76
2022/12/28 06:55:55;;;;;;;2.40;1.83;;;;;14.50;100825.00;;;;5054045;28;20200;-76
2022/12/28 06:58:24;;;;;;;2.55;1.55;;;;;14.60;100819.00;;;;5063003;28;20202;-77
2022/12/28 07:00:52;;;;;;;1.60;1.50;;;;;14.60;100817.00;;;;5052764;28;20207;-77
2022/12/28 07:03:19;;;;;;;1.60;1.50;;;;;14.60;100824.00;;;;5053324;28;20213;-77
2022/12/28 07:05:47;;;;;;;2.25;1.33;;;;;14.60;100820.00;;;;5058662;28;20203;-77
2022/12/28 07:08:15;;;;;;;1.35;1.20;;;;;14.70;100819.00;;;;5056752;28;20199;-77
2022/12/28 07:10:43;;;;;;;3.05;1.55;;;;;14.70;100806.00;;;;5056546;28;20684;-77
2022/12/28 07:13:10;;;;;;;1.52;1.40;;;;;14.70;100816.00;;;;5051899;28;20199;-76
2022/12/28 07:15:38;;;;;;;2.33;1.60;;;;;14.70;100812.00;;;;5058493;28;20206;-77
2022/12/28 07:18:06;;;;;;;1.83;1.48;;;;;14.80;100810.00;;;;5057798;28;20219;-77
2022/12/28 07:20:33;;;;;;;2.13;1.80;;;;;14.80;100818.00;;;;5052679;28;20218;-77
2022/12/28 07:23:00;;;;;;;1.77;1.50;;;;;14.80;100816.00;;;;5056730;28;20237;-77
2022/12/28 07:25:27;;;;;;;2.08;1.58;;;;;14.80;100815.00;;;;5058028;28;20488;-77
2022/12/28 07:27:55;;;;;;;1.73;1.60;;;;;14.80;100809.00;;;;5065509;28;20195;-77
2022/12/28 07:30:22;;;;;;;1.63;1.50;;;;;14.90;100825.00;;;;5050271;28;20265;-77
2022/12/28 07:32:51;;;;;;;3.58;1.73;;;;;14.90;100819.00;;;;5059686;28;20191;-77
2022/12/28 07:35:18;;;;;;;1.77;1.40;;;;;14.90;100817.00;;;;5059244;28;20198;-77
2022/12/28 07:37:46;;;;;;;2.40;1.60;;;;;14.90;100820.00;;;;5054945;28;20223;-77
2022/12/28 07:40:13;;;;;;;2.28;1.60;;;;;14.90;100821.00;;;;5058929;28;20209;-76
2022/12/28 07:42:40;;;;;;;1.40;1.30;;;;;14.90;100833.00;;;;5053096;28;20196;-77
2022/12/28 07:45:11;;;;;;;2.15;1.60;;;;;14.90;100826.00;;;;5055555;28;20199;-76
2022/12/28 07:47:39;;;;;;;2.05;1.40;;;;;15.00;100836.00;;;;5058478;28;20199;-77
2022/12/28 07:50:08;;;;;;;1.90;1.45;;;;;15.00;100831.00;;;;5058261;28;20196;-78
2022/12/28 07:52:36;;;;;;;1.75;1.45;;;;;15.00;100830.00;;;;5064229;28;20200;-76
2022/12/28 07:55:04;;;;;;;1.45;1.35;;;;;15.00;100837.00;;;;5052439;28;20223;-77
2022/12/28 07:57:33;;;;;;;1.80;1.63;;;;;15.00;100834.00;;;;5050710;28;20314;-76
2022/12/28 08:00:00;;;;;;;4.60;1.73;;;;;15.10;100831.00;;;;5057241;28;20564;-77
2022/12/28 08:02:27;;;;;;;1.70;1.60;;;;;15.10;100829.00;;;;5059709;28;20207;-77
2022/12/28 08:04:55;;;;;;;1.50;1.40;;;;;15.10;100827.00;;;;5058858;28;20204;-77
2022/12/28 08:07:23;;;;;;;1.85;1.40;;;;;15.10;100834.00;;;;5050230;28;20205;-77
2022/12/28 08:09:51;;;;;;;1.90;1.70;;;;;15.10;100829.00;;;;5060174;28;20202;-77
2022/12/28 08:12:18;;;;;;;1.50;1.30;;;;;15.10;100812.00;;;;5053220;28;20199;-77
2022/12/28 08:14:45;;;;;;;1.80;1.70;;;;;15.10;100819.00;;;;5063208;28;20203;-77
2022/12/28 08:17:12;;;;;;;2.88;1.60;;;;;15.10;100816.00;;;;5051159;28;20235;-77
2022/12/28 08:19:39;;;;;;;1.65;1.55;;;;;15.10;100825.00;;;;5051949;28;20191;-77
2022/12/28 08:22:07;;;;;;;2.33;1.80;;;;;15.20;100816.00;;;;5061741;28;20222;-76
2022/12/28 08:24:35;;;;;;;2.67;2.42;;;;;15.10;100809.00;;;;5056936;28;20696;-77
2022/12/28 08:27:03;;;;;;;2.00;1.58;;;;;15.20;100813.00;;;;5054421;28;20195;-77
2022/12/28 08:29:30;;;;;;;1.70;1.60;;;;;15.20;100821.00;;;;5053445;28;20219;-78
2022/12/28 08:31:58;;;;;;;2.25;1.92;;;;;15.20;100828.00;;;;5055081;28;20199;-77
2022/12/28 08:34:28;;;;;;;2.53;2.00;;;;;15.20;100819.00;;;;5051125;28;20571;-77
2022/12/28 08:36:56;;;;;;;1.83;1.60;;;;;15.20;100819.00;;;;5049334;28;20227;-77
2022/12/28 08:39:23;;;;;;;2.83;2.05;;;;;15.20;100815.00;;;;5047794;28;20206;-78
2022/12/28 08:41:52;;;;;;;3.38;2.08;;;;;15.20;100830.00;;;;5054759;28;20202;-77
2022/12/28 08:44:19;;;;;;;2.10;1.92;;;;;15.20;100827.00;;;;5057294;28;20223;-76
2022/12/28 08:46:46;;;;;;;2.53;1.85;;;;;15.20;100821.00;;;;5064053;28;20208;-77
2022/12/28 08:49:14;;;;;;;2.08;1.60;;;;;15.20;100825.00;;;;5058939;28;20334;-76
2022/12/28 08:51:42;;;;;;;2.15;1.52;;;;;15.20;100828.00;;;;5060708;28;20191;-77
2022/12/28 08:54:11;;;;;;;2.40;1.50;;;;;15.20;100816.00;;;;5050327;28;20200;-76
2022/12/28 08:56:39;;;;;;;2.42;1.42;;;;;15.30;100815.00;;;;5050514;28;20713;-77
2022/12/28 08:59:08;;;;;;;2.58;1.52;;;;;15.30;100824.00;;;;5064685;28;20195;-76
2022/12/28 09:01:38;;;;;;;2.33;1.48;;;;;15.30;100821.00;;;;5049146;28;20592;-77
2022/12/28 09:04:06;;;;;;;3.10;1.60;;;;;15.30;100817.00;;;;5055922;28;20191;-77
2022/12/28 09:06:35;;;;;;;2.47;1.60;;;;;15.30;100833.00;;;;5052415;28;20663;-77
2022/12/28 09:09:04;;;;;;;2.08;1.52;;;;;15.30;100820.00;;;;5057473;28;20196;-75
2022/12/28 09:11:31;;;;;;;2.40;1.33;;;;;15.30;100816.00;;;;5053950;28;20207;-77
2022/12/28 09:13:58;;;;;;;2.60;1.85;;;;;15.30;100824.00;;;;5057390;28;20666;-77
2022/12/28 09:16:28;;;;;;;2.38;1.48;;;;;15.30;100826.00;;;;5058972;28;20199;-77
2022/12/28 09:18:57;;;;;;;6.53;2.00;;;;;15.30;100819.00;;;;5051764;28;20215;-77
2022/12/28 09:21:27;;;;;;;2.30;1.65;;;;;15.30;100820.00;;;;5051087;28;20287;-78
2022/12/28 09:23:55;;;;;;;2.13;1.65;;;;;15.30;100819.00;;;;5049094;28;20754;-78
2022/12/28 09:26:24;;;;;;;1.83;1.65;;;;;15.30;100821.00;;;;5050866;28;20206;-78
2022/12/28 09:28:53;;;;;;;5.65;1.65;;;;;15.30;100825.00;;;;5049264;28;20207;-78
2022/12/28 09:31:23;;;;;;;2.30;1.92;;;;;15.30;100818.00;;;;5056273;28;20199;-78
2022/12/28 09:34:01;;;;;;;4.30;2.25;;;;;15.40;100815.00;;;;5049175;28;20199;-78
2022/12/28 09:36:30;;;;;;;3.00;2.13;;;;;15.30;100821.00;;;;5054184;28;20566;-78
2022/12/28 09:38:59;;;;;;;2.78;2.50;;;;;15.40;100818.00;;;;5049524;28;20211;-79
2022/12/28 09:41:30;;;;;;;3.10;2.58;;;;;15.40;100822.00;;;;5054674;28;20991;-78
2022/12/28 09:44:15;;;;;;;2.90;2.60;;;;;15.30;100820.00;;;;5054806;28;20224;-78
2022/12/28 09:46:46;;;;;;;2.63;2.42;;;;;15.30;100816.00;;;;5049460;28;20196;-77
2022/12/28 09:49:17;;;;;;;2.55;2.35;;;;;15.30;100820.00;;;;5048871;28;20198;-77
2022/12/28 09:51:50;;;;;;;2.42;2.22;;;;;15.30;100814.00;;;;5049993;28;20206;-77
2022/12/28 09:54:18;;;;;;;3.28;2.42;;;;;15.40;100819.00;;;;5051181;28;20207;-78
2022/12/28 09:56:47;;;;;;;5.72;2.60;;;;;15.40;100808.00;;;;5049468;28;20218;-78
2022/12/28 09:59:20;;;;;;;4.90;2.42;;;;;15.30;100803.00;;;;5049435;28;21521;-78
2022/12/28 10:01:57;;;;;;;2.75;2.47;;;;;15.30;100810.00;;;;5054899;28;20203;-78
2022/12/28 10:04:26;;;;;;;3.97;2.15;;;;;15.40;100805.00;;;;5048389;28;20203;-79
2022/12/28 10:06:53;;;;;;;3.60;2.00;;;;;15.40;100810.00;;;;5049436;28;20210;-79
2022/12/28 10:09:27;;;;;;;3.92;2.13;;;;;15.30;100809.00;;;;5052333;28;20219;-78
2022/12/28 10:11:54;;;;;;;3.88;2.28;;;;;15.40;100801.00;;;;5055342;28;20538;-79
2022/12/28 10:14:26;;;;;;;4.82;2.20;;;;;15.30;100806.00;;;;5047934;28;20203;-79
2022/12/28 10:16:53;;;;;;;7.75;3.55;;;;;15.30;100799.00;;;;5054243;28;20214;-80
2022/12/28 10:19:24;;;;;;;5.10;2.00;;;;;15.30;100797.00;;;;5057926;28;20196;-78
2022/12/28 10:21:59;;;;;;;2.40;2.15;;;;;15.30;100797.00;;;;5053249;28;20191;-78
2022/12/28 10:24:27;;;;;;;2.40;1.98;;;;;15.30;100795.00;;;;5055513;28;20233;-78
2022/12/28 10:26:55;;;;;;;2.45;2.25;;;;;15.30;100792.00;;;;5057081;28;20214;-78
2022/12/28 10:29:24;;;;;;;3.28;1.85;;;;;15.20;100799.00;;;;5047163;28;20275;-78
2022/12/28 10:31:59;;;;;;;2.13;1.65;;;;;15.20;100796.00;;;;5054625;28;20203;-78
2022/12/28 10:34:27;;;;;;;1.85;1.67;;;;;15.20;100790.00;;;;5070849;28;20838;-78
2022/12/28 10:37:03;;;;;;;2.28;1.65;;;;;15.20;100782.00;;;;5051172;28;20310;-78
2022/12/28 10:39:32;;;;;;;2.38;1.85;;;;;15.20;100785.00;;;;5064268;28;20190;-77
2022/12/28 10:42:00;;;;;;;2.67;2.20;;;;;15.30;100794.00;;;;5057610;28;20203;-77
2022/12/28 10:44:31;;;;;;;2.75;1.95;;;;;15.20;100788.00;;;;5056867;28;20218;-78
2022/12/28 10:47:02;;;;;;;2.83;1.98;;;;;15.20;100788.00;;;;5054038;28;20191;-79
2022/12/28 10:49:34;;;;;;;6.85;1.90;;;;;15.20;100782.00;;;;5059034;28;20610;-77
2022/12/28 10:52:18;;;;;;;4.22;2.05;;;;;15.20;100785.00;;;;5051832;28;20207;-77
2022/12/28 10:54:46;;;;;;;4.10;1.60;;;;;15.20;100789.00;;;;5051834;28;20203;-77
2022/12/28 10:57:18;;;;;;;2.88;1.88;;;;;15.20;100784.00;;;;5051436;28;20219;-78
2022/12/28 10:59:48;;;;;;;1.83;1.60;;;;;15.20;100781.00;;;;5051910;28;20192;-78
2022/12/28 11:02:27;;;;;;;2.45;1.55;;;;;15.10;100780.00;;;;5064896;28;20215;-78
2022/12/28 11:04:59;;;;;;;3.35;1.70;;;;;15.10;100775.00;;;;5053675;28;20218;-77
2022/12/28 11:07:31;;;;;;;1.88;1.40;;;;;15.20;100778.00;;;;5050472;28;20196;-78
2022/12/28 11:10:16;;;;;;;2.25;1.38;;;;;15.10;100764.00;;;;5051128;28;20199;-78
2022/12/28 11:12:45;;;;;;;2.17;1.35;;;;;15.20;100758.00;;;;5051159;28;20211;-78
2022/12/28 11:15:19;;;;;;;2.00;1.45;;;;;15.10;100758.00;;;;5051454;28;20203;-78
2022/12/28 11:17:55;;;;;;;2.85;1.10;;;;;15.10;100749.00;;;;5052377;28;20223;-77
2022/12/28 11:20:25;;;;;;;2.72;1.10;;;;;15.20;100745.00;;;;5051138;28;20246;-78
2022/12/28 11:22:54;;;;;;;1.40;1.30;;;;;15.20;100746.00;;;;5049885;28;20713;-80
2022/12/28 11:25:29;;;;;;;1.42;1.08;;;;;15.10;100730.00;;;;5056096;28;20187;-77
2022/12/28 11:27:57;;;;;;;1.58;1.10;;;;;15.20;100730.00;;;;5067579;28;20218;-78
2022/12/28 11:30:24;;;;;;;1.02;0.88;;;;;15.20;100736.00;;;;5050191;28;20216;-78
2022/12/28 11:32:54;;;;;;;1.58;1.10;;;;;15.20;100726.00;;;;5052646;28;20600;-78
2022/12/28 11:35:24;;;;;;;1.25;0.90;;;;;15.20;100723.00;;;;5057082;28;20213;-77
2022/12/28 11:37:55;;;;;;;0.95;0.88;;;;;15.20;100721.00;;;;5064708;28;20246;-78
2022/12/28 11:40:46;;;;;;;1.20;1.00;;;;;15.10;100721.00;;;;5050090;28;20634;-79
2022/12/28 11:43:38;;;;;;;1.40;1.02;;;;;15.10;100709.00;;;;5052907;28;20227;-78
2022/12/28 11:46:07;;;;;;;0.80;0.80;;;;;15.20;100717.00;;;;5048889;28;20211;-78
2022/12/28 11:48:56;;;;;;;5.32;1.10;;;;;15.10;100711.00;;;;5049115;28;20227;-78
2022/12/28 11:51:25;;;;;;;3.13;1.10;;;;;15.20;100693.00;;;;5049980;28;20230;-78
2022/12/28 11:53:58;;;;;;;1.15;0.80;;;;;15.10;100704.00;;;;5050809;28;20215;-78
2022/12/28 11:56:28;;;;;;;1.55;1.00;;;;;15.20;100698.00;;;;5052425;28;20200;-78
2022/12/28 11:59:04;;;;;;;1.48;1.05;;;;;15.10;100698.00;;;;5060165;28;20219;-78
2022/12/28 12:01:48;;;;;;;1.35;0.95;;;;;15.10;100691.00;;;;5065782;28;21005;-78
2022/12/28 12:04:19;;;;;;;2.58;1.17;;;;;15.20;100704.00;;;;5059551;28;20198;-78
2022/12/28 12:07:26;;;;;;;3.42;1.08;;;;;15.10;100696.00;;;;5051921;28;20196;-78
2022/12/28 12:10:21;;;;;;;1.13;0.80;;;;;15.10;100705.00;;;;5052027;28;20208;-78
2022/12/28 12:12:51;;;;;;;1.73;1.20;;;;;15.10;100698.00;;;;5058537;28;20199;-79
2022/12/28 12:15:21;;;;;;;1.40;0.93;;;;;15.10;100696.00;;;;5054003;28;20210;-79
2022/12/28 12:17:53;;;;;;;1.08;0.98;;;;;15.10;100682.00;;;;5055795;28;20564;-79
2022/12/28 12:20:45;;;;;;;1.50;1.20;;;;;15.00;100689.00;;;;5067691;28;20203;-80
2022/12/28 12:23:26;;;;;;;1.92;0.93;;;;;15.10;100672.00;;;;5052945;28;20735;-78
2022/12/28 12:25:57;;;;;;;2.42;1.13;;;;;15.10;100681.00;;;;5053358;28;20203;-78
2022/12/28 12:28:36;;;;;;;1.13;0.82;;;;;15.10;100670.00;;;;5050025;28;20195;-79
2022/12/28 12:31:07;;;;;;;2.60;1.00;;;;;15.10;100673.00;;;;5050780;28;20684;-78
2022/12/28 12:33:36;;;;;;;1.00;0.60;;;;;15.10;100665.00;;;;5050205;28;20204;-78
2022/12/28 12:36:18;;;;;;;3.45;1.20;;;;;15.10;100653.00;;;;5049716;28;20579;-79
2022/12/28 12:39:09;;;;;;;1.02;0.85;;;;;15.10;100651.00;;;;5061543;28;20233;-78
2022/12/28 12:41:48;;;;;;;2.05;1.40;;;;;15.10;100639.00;;;;5070371;28;20292;-78
2022/12/28 12:44:25;;;;;;;2.15;1.17;;;;;15.20;100640.00;;;;5068111;28;20288;-77
2022/12/28 12:47:18;;;;;;;1.23;1.00;;;;;15.10;100636.00;;;;5054451;28;20570;-78
2022/12/28 12:50:07;;;;;;;1.38;0.82;;;;;15.20;100626.00;;;;5049617;28;20204;-77
2022/12/28 12:52:41;;;;;;;2.88;1.40;;;;;15.20;100627.00;;;;5052440;28;20210;-77